Pakenham, Canada
Current Conditions -  °F | °C
As of 9:00 AM on Sunday 23 Nov 2014 (Local Time) from CYOW Reporting Station
Moderate Fog Moderate Fog  
Wind Chill: 36°   Ceiling: 200
Heat Index: 39°   Visibility: 0.5mi
Dew Point: 39°   Wind: 5mph
Humidity: 100%   Direction: 160°SSE
Pressure: 30.01"   Gusts: NA
Location:  45.33°N, 76.28°W
Report Text: CYOW 231400Z 16004KT 1/2SM FG OVC002 04/04 A3001 RMK ST8 SLP168
Loading
Personal Weather Stations






























Interactive Weather Map New forecast layout! Learn more

10-Day Weather Forecast

Advertisements
Track Severe Weather on mobile